createdAt,value
2018-01-03T17:22:18.323Z,8.9
2018-01-03T17:23:18.716Z,8.78
2018-01-03T17:24:27.554Z,8.75
2018-01-03T17:25:27.867Z,8.65
2018-01-03T17:26:27.468Z,8.58
2018-01-03T17:27:28.118Z,8.53
2018-01-03T17:28:27.701Z,8.5
2018-01-03T17:29:27.547Z,8.46
2018-01-03T17:30:28.023Z,8.42
2018-01-03T17:31:27.539Z,8.38
2018-01-03T17:32:27.833Z,8.35
2018-01-03T17:33:28.858Z,8.33
2018-01-03T17:34:29.177Z,8.3
2018-01-03T17:35:29.076Z,8.27
2018-01-03T17:35:46.825Z,8.3
2018-01-03T17:36:47.357Z,8.22
2018-01-03T17:37:46.794Z,8.19
2018-01-03T17:38:50.932Z,8.17
2018-01-03T17:39:47.272Z,8.15
2018-01-03T17:40:46.737Z,8.13
2018-01-03T17:41:46.969Z,8.1
2018-01-03T17:42:47.463Z,8.08
2018-01-03T17:43:47.396Z,8.06
2018-01-03T17:44:46.898Z,8.05
2018-01-03T17:45:47.408Z,8.04
2018-01-03T17:46:47.079Z,8.05
2018-01-03T17:47:46.641Z,8.04
2018-01-03T17:48:46.861Z,8.03
2018-01-03T17:49:47.192Z,8.03
2018-01-03T17:50:47.588Z,8.02
2018-01-03T17:51:46.726Z,8.01
2018-01-03T17:52:46.971Z,8
2018-01-03T17:53:47.240Z,8.02
2018-01-03T17:54:47.583Z,8.02
2018-01-03T17:55:46.897Z,8.03
2018-01-03T17:56:47.259Z,8.02
2018-01-03T17:57:46.910Z,8.01
2018-01-03T17:58:47.161Z,8.02
2018-01-03T17:59:47.552Z,8.03
2018-01-03T18:00:46.888Z,8.04
2018-01-03T18:01:47.141Z,8.04
2018-01-03T18:02:47.465Z,8.05
2018-01-03T18:03:46.762Z,8.05
2018-01-03T18:04:47.331Z,8.06
2018-01-03T18:05:46.904Z,8.05
2018-01-03T18:06:47.035Z,8.07
2018-01-03T18:07:47.180Z,8.06
2018-01-03T18:08:47.546Z,8.05
2018-01-03T18:09:46.952Z,8.04
2018-01-03T18:10:47.131Z,8.04
2018-01-03T18:11:47.324Z,8.04
2018-01-03T18:12:47.547Z,8.04
2018-01-03T18:13:47.682Z,8.02
2018-01-03T18:14:47.372Z,8.02
2018-01-03T18:15:47.487Z,8.02
2018-01-03T18:16:46.926Z,8.02
2018-01-03T18:17:47.326Z,8.02
2018-01-03T18:18:47.460Z,8.01
2018-01-03T18:19:46.929Z,8.02
2018-01-03T18:20:47.394Z,8.01
2018-01-03T18:21:47.741Z,8.03
2018-01-03T18:22:46.984Z,8.03
2018-01-03T18:23:47.230Z,8.03
2018-01-03T18:24:47.601Z,8.06
2018-01-03T18:25:47.698Z,8.06
2018-01-03T18:26:47.249Z,8.06
2018-01-03T18:27:47.683Z,8.06
2018-01-03T18:28:47.199Z,8.06
2018-01-03T18:29:47.733Z,8.06
2018-01-03T18:30:47.420Z,8.06
2018-01-03T18:31:47.812Z,8.06
2018-01-03T18:32:47.307Z,8.06
2018-01-03T18:33:47.809Z,8.05
2018-01-03T18:34:47.130Z,8.05
2018-01-03T18:35:47.436Z,8.06
2018-01-03T18:36:46.736Z,8.05
2018-01-03T18:37:47.064Z,8.07
2018-01-03T18:38:46.529Z,8.07
2018-01-03T18:39:46.765Z,8.07
2018-01-03T18:40:46.515Z,8.06
2018-01-03T18:41:47.013Z,8.07
2018-01-03T18:42:47.342Z,8.07
2018-01-03T18:43:46.898Z,8.09
2018-01-03T18:44:47.380Z,8.09
2018-01-03T18:45:46.788Z,8.09
2018-01-03T18:46:47.426Z,8.12
2018-01-03T18:47:46.957Z,8.1
2018-01-03T18:48:46.656Z,8.13
2018-01-03T18:49:47.042Z,8.13
2018-01-03T18:50:47.176Z,8.13
2018-01-03T18:51:46.940Z,8.13
2018-01-03T18:52:32.700Z,8.17
2018-01-03T18:53:32.834Z,8.11
2018-01-03T18:54:32.847Z,8.12
2018-01-03T18:55:33.143Z,8.13
2018-01-03T18:56:32.848Z,8.12
2018-01-03T18:57:33.484Z,8.13
2018-01-03T18:58:33.207Z,8.14
2018-01-03T18:59:32.750Z,8.17
2018-01-03T19:00:33.477Z,8.18
2018-01-03T19:01:33.011Z,8.18
2018-01-03T19:02:33.457Z,8.2
2018-01-03T19:03:33.580Z,8.2
2018-01-03T19:04:33.189Z,8.21
2018-01-03T19:05:32.933Z,8.22
2018-01-03T19:06:33.323Z,8.27
2018-01-03T19:07:33.378Z,8.26
2018-01-03T19:08:32.821Z,8.25
2018-01-03T19:09:33.184Z,8.26
2018-01-03T19:10:33.008Z,8.26
2018-01-03T19:11:32.807Z,8.24
2018-01-03T19:12:32.723Z,8.24
2018-01-03T19:13:33.220Z,8.23
2018-01-03T19:14:32.552Z,8.24
2018-01-03T19:15:32.699Z,8.24
2018-01-03T19:16:32.727Z,8.24
2018-01-03T19:17:32.788Z,8.22
2018-01-03T19:18:33.316Z,8.23
2018-01-03T19:19:32.628Z,8.24
2018-01-03T19:20:33.329Z,8.23
2018-01-03T19:21:32.904Z,8.23
2018-01-03T19:22:32.678Z,8.2
2018-01-03T19:23:33.146Z,8.19
2018-01-03T19:24:34.446Z,8.15
2018-01-03T19:25:33.236Z,8.1
2018-01-03T19:26:32.538Z,8.06
2018-01-03T19:27:32.953Z,8.04
2018-01-03T19:28:33.370Z,8.02
2018-01-03T19:29:33.502Z,7.99
2018-01-03T19:30:32.858Z,7.97
2018-01-03T19:31:32.527Z,7.96
2018-01-03T19:32:33.515Z,7.96
2018-01-03T19:33:33.459Z,7.93
2018-01-03T19:34:33.129Z,7.93
2018-01-03T19:35:33.588Z,7.92
2018-01-03T19:36:32.745Z,7.93
2018-01-03T19:37:33.075Z,7.9
2018-01-03T19:38:32.846Z,7.9
2018-01-03T19:39:32.970Z,7.88
2018-01-03T19:40:32.612Z,7.87
2018-01-03T19:41:33.056Z,7.86
2018-01-03T19:42:33.595Z,7.86
2018-01-03T19:43:32.871Z,7.84
2018-01-03T19:44:33.303Z,7.85
2018-01-03T19:45:34.191Z,7.84
2018-01-03T19:46:32.992Z,7.83
2018-01-03T19:47:33.042Z,7.83
2018-01-03T19:48:32.907Z,7.82
2018-01-03T19:49:33.470Z,7.83
2018-01-03T19:50:33.356Z,7.83
2018-01-03T19:51:33.199Z,7.83
2018-01-03T19:52:33.480Z,7.82
2018-01-03T19:53:33.264Z,7.81
2018-01-03T19:54:32.867Z,7.81
2018-01-03T19:55:32.821Z,7.81
2018-01-03T19:56:33.059Z,7.8
2018-01-03T19:57:32.780Z,7.79
2018-01-03T19:58:32.736Z,7.81
2018-01-03T19:59:33.352Z,7.81
2018-01-03T20:00:32.725Z,7.81
2018-01-03T20:01:33.084Z,7.82
2018-01-03T20:02:32.696Z,7.82
2018-01-03T20:03:33.196Z,7.84
2018-01-03T20:04:33.038Z,7.85
2018-01-03T20:05:32.677Z,7.86
2018-01-03T20:06:33.278Z,7.86
2018-01-03T20:07:32.805Z,7.86
2018-01-03T20:08:33.412Z,7.87
2018-01-03T20:09:34.214Z,7.88
2018-01-03T20:10:32.573Z,7.89
2018-01-03T20:11:32.731Z,7.89
2018-01-03T20:12:33.073Z,7.9
2018-01-03T20:13:33.205Z,7.94
2018-01-03T20:14:32.567Z,7.94
2018-01-03T20:14:52.165Z,7.95
2018-01-03T20:15:51.823Z,7.93
2018-01-03T20:16:52.613Z,7.94
2018-01-03T20:17:52.347Z,7.95
2018-01-03T20:18:52.978Z,7.96
2018-01-03T20:19:52.468Z,7.96
2018-01-03T20:20:52.235Z,7.97
2018-01-03T20:21:51.903Z,7.95
2018-01-03T20:22:52.651Z,7.96
2018-01-03T20:23:51.770Z,8
2018-01-03T20:24:52.714Z,8.01
2018-01-03T20:25:52.464Z,8.01
2018-01-03T20:26:52.269Z,8.01
2018-01-03T20:27:51.926Z,8
2018-01-03T20:28:52.436Z,7.99
2018-01-03T20:29:52.297Z,8
2018-01-03T20:30:52.267Z,7.99
2018-01-03T20:31:27.751Z,8.03
2018-01-03T20:32:28.236Z,7.99
2018-01-03T20:33:28.014Z,7.99
2018-01-03T20:34:27.882Z,8
2018-01-03T20:35:27.554Z,8.01
2018-01-03T20:36:28.115Z,8.03
2018-01-03T20:37:27.723Z,8.03
2018-01-03T20:38:28.004Z,8
2018-01-03T20:39:27.661Z,8
2018-01-03T20:40:28.288Z,8.01
2018-01-03T20:41:27.818Z,8.03
2018-01-03T20:42:29.090Z,8.03
2018-01-03T20:43:28.172Z,8.02
2018-01-03T20:44:27.768Z,8.03
2018-01-03T20:45:28.048Z,8.03
2018-01-03T20:46:27.909Z,8.01
2018-01-03T20:47:28.379Z,8.01
2018-01-03T20:48:27.676Z,8.02
2018-01-03T20:49:27.727Z,8.01
2018-01-03T20:50:27.814Z,8.01
2018-01-03T20:51:28.385Z,7.98
2018-01-03T20:52:28.247Z,7.98
2018-01-03T20:53:27.918Z,7.97
2018-01-03T20:54:27.564Z,7.98
2018-01-03T20:55:28.329Z,8
2018-01-03T20:56:28.252Z,8
2018-01-03T20:57:28.136Z,8
2018-01-03T20:58:27.656Z,8.01
2018-01-03T20:59:28.364Z,8.02
2018-01-03T21:00:27.760Z,8.02
2018-01-03T21:01:28.676Z,8.02
2018-01-03T21:02:27.597Z,8.02
2018-01-03T21:03:28.196Z,8.02
2018-01-03T21:04:27.753Z,8.02
2018-01-03T21:05:28.315Z,8.03
2018-01-03T21:06:27.725Z,8.05
2018-01-03T21:07:29.064Z,8.05
2018-01-03T21:08:03.625Z,8.07
2018-01-03T21:08:25.814Z,8.07
2018-01-03T21:09:25.542Z,8.04
2018-01-03T21:10:25.971Z,8.07
2018-01-03T21:11:26.938Z,8.13
2018-01-03T21:12:26.329Z,8.14
2018-01-03T21:13:25.754Z,8.16
2018-01-03T21:14:26.970Z,8.17
2018-01-03T21:15:26.186Z,8.16
2018-01-03T21:16:25.694Z,8.17
2018-01-03T21:17:25.783Z,8.17
2018-01-03T21:18:26.045Z,8.16
2018-01-03T21:19:26.018Z,8.15
2018-01-03T21:20:25.731Z,8.16
2018-01-03T21:21:27.324Z,8.17
2018-01-03T21:22:26.388Z,8.18
2018-01-03T21:23:26.927Z,8.19
2018-01-03T21:24:25.877Z,8.17
2018-01-03T21:25:26.394Z,8.2
2018-01-03T21:26:25.909Z,8.2
2018-01-03T21:27:25.685Z,8.19
2018-01-03T21:28:26.426Z,8.19
2018-01-03T21:29:25.800Z,8.18
2018-01-03T21:30:26.255Z,8.16
2018-01-03T21:31:25.719Z,8.15
2018-01-03T21:32:26.248Z,8.14
2018-01-03T21:33:25.654Z,8.1
2018-01-03T21:34:25.838Z,8.09
2018-01-03T21:35:26.256Z,8.07
2018-01-03T21:36:25.422Z,8.06
2018-01-03T21:37:26.264Z,8.03
2018-01-03T21:38:25.958Z,8.02
2018-01-03T21:39:26.439Z,7.99
2018-01-03T21:40:27.816Z,7.99
2018-01-03T21:41:27.348Z,7.97
2018-01-03T21:42:26.587Z,7.95
2018-01-03T21:43:26.206Z,7.95
2018-01-03T21:44:26.660Z,7.93
2018-01-03T21:45:26.735Z,7.9
2018-01-03T21:46:26.212Z,7.86
2018-01-03T21:47:26.429Z,7.81
2018-01-03T21:48:26.068Z,7.8
2018-01-03T21:49:26.379Z,7.77
2018-01-03T21:50:26.717Z,7.72
2018-01-03T21:51:25.890Z,7.73
2018-01-03T21:52:26.194Z,7.7
2018-01-03T21:53:26.398Z,7.7
2018-01-03T21:54:25.880Z,7.68
2018-01-03T21:55:25.923Z,7.67
2018-01-03T21:56:26.478Z,7.66
2018-01-03T21:57:25.969Z,7.66
2018-01-03T21:59:26.608Z,7.65
2018-01-03T22:00:26.348Z,7.64
2018-01-03T22:01:26.110Z,7.64
2018-01-03T22:02:29.556Z,7.64
2018-01-03T22:03:26.958Z,7.62
2018-01-03T22:04:25.916Z,7.62
2018-01-03T22:05:26.650Z,7.62
2018-01-03T22:06:25.984Z,7.61
2018-01-03T22:07:26.570Z,7.61
2018-01-03T22:08:27.530Z,7.59
2018-01-03T22:09:26.107Z,7.59
2018-01-03T22:10:27.084Z,7.58
2018-01-03T22:11:27.103Z,7.57
2018-01-03T22:12:26.345Z,7.56
2018-01-03T22:13:26.267Z,7.57
2018-01-03T22:14:26.175Z,7.55
2018-01-03T22:15:26.365Z,7.55
2018-01-03T22:16:26.836Z,7.57
2018-01-03T22:17:26.560Z,7.56
2018-01-03T22:18:26.284Z,7.58
2018-01-03T22:19:26.814Z,7.57
2018-01-03T22:20:26.691Z,7.56
2018-01-03T22:21:26.077Z,7.56
2018-01-03T22:22:26.411Z,7.55
2018-01-03T22:23:26.152Z,7.54
2018-01-03T22:24:26.876Z,7.55
2018-01-03T22:25:26.293Z,7.54
2018-01-03T22:26:26.645Z,7.54
2018-01-03T22:27:26.560Z,7.52
2018-01-03T22:28:26.208Z,7.5
2018-01-03T22:29:26.926Z,7.47
2018-01-03T22:30:26.716Z,7.46
2018-01-03T22:31:26.610Z,7.43
2018-01-03T22:32:26.771Z,7.43
2018-01-03T22:33:26.903Z,7.4
2018-01-03T22:34:26.165Z,7.39
2018-01-03T22:35:27.389Z,7.36
2018-01-03T22:36:26.493Z,7.35
2018-01-03T22:37:26.123Z,7.34
2018-01-03T22:38:26.716Z,7.32
2018-01-03T22:39:26.147Z,7.3
2018-01-03T22:40:26.535Z,7.3
2018-01-03T22:41:26.213Z,7.28
2018-01-03T22:42:26.919Z,7.27
2018-01-03T22:43:26.727Z,7.29
2018-01-03T22:44:26.085Z,7.28
2018-01-03T22:45:26.117Z,7.28
2018-01-03T22:46:26.523Z,7.28
2018-01-03T22:47:26.940Z,7.27
2018-01-03T22:48:26.254Z,7.26
2018-01-03T22:49:26.749Z,7.27
2018-01-03T22:50:26.406Z,7.28
2018-01-03T22:51:27.050Z,7.29
2018-01-03T22:52:26.365Z,7.29
2018-01-03T22:53:26.663Z,7.31
2018-01-03T22:54:27.059Z,7.33
2018-01-03T22:55:27.002Z,7.34
2018-01-03T22:56:26.216Z,7.36
2018-01-03T22:57:26.946Z,7.36
2018-01-03T22:58:26.551Z,7.36
2018-01-03T22:59:27.122Z,7.39
2018-01-03T23:00:26.232Z,7.39
2018-01-03T23:01:26.943Z,7.39
2018-01-03T23:02:26.841Z,7.4
2018-01-03T23:03:26.698Z,7.41
2018-01-03T23:04:26.638Z,7.42
2018-01-03T23:05:27.020Z,7.43
2018-01-03T23:06:26.646Z,7.44
2018-01-03T23:07:26.324Z,7.42
2018-01-03T23:08:26.774Z,7.44
2018-01-03T23:09:26.154Z,7.44
2018-01-03T23:10:27.062Z,7.45
2018-01-03T23:11:26.501Z,7.43
2018-01-03T23:12:26.695Z,7.43
2018-01-03T23:13:26.983Z,7.43
2018-01-03T23:14:26.773Z,7.43
2018-01-03T23:15:27.113Z,7.42
2018-01-03T23:16:26.721Z,7.42
2018-01-03T23:17:27.099Z,7.42
2018-01-03T23:18:26.240Z,7.41
2018-01-03T23:19:26.953Z,7.41
2018-01-03T23:20:27.367Z,7.4
2018-01-03T23:21:26.692Z,7.4
2018-01-03T23:22:26.870Z,7.39
2018-01-03T23:23:26.672Z,7.37
2018-01-03T23:24:27.195Z,7.34
2018-01-03T23:25:26.980Z,7.34
2018-01-03T23:26:26.729Z,7.33
2018-01-03T23:27:27.034Z,7.31
2018-01-03T23:28:26.427Z,7.29
2018-01-03T23:29:27.231Z,7.27
2018-01-03T23:30:27.014Z,7.27
2018-01-03T23:31:26.523Z,7.25
2018-01-03T23:32:26.851Z,7.22
2018-01-03T23:33:26.212Z,7.21
2018-01-03T23:34:26.640Z,7.19
2018-01-03T23:35:26.906Z,7.2
2018-01-03T23:36:26.898Z,7.21
2018-01-03T23:37:26.585Z,7.2
2018-01-03T23:38:26.462Z,7.18
2018-01-03T23:39:27.078Z,7.18
2018-01-03T23:40:27.005Z,7.18
2018-01-03T23:41:27.227Z,7.19
2018-01-03T23:42:26.434Z,7.19
2018-01-03T23:43:26.226Z,7.2
2018-01-03T23:44:26.702Z,7.22
2018-01-03T23:45:26.869Z,7.23
2018-01-03T23:46:26.804Z,7.22
2018-01-03T23:47:26.457Z,7.23
2018-01-03T23:48:26.386Z,7.24
2018-01-03T23:49:26.204Z,7.25
2018-01-03T23:50:26.813Z,7.25
2018-01-03T23:51:26.235Z,7.27
2018-01-03T23:52:27.119Z,7.28
2018-01-03T23:53:26.956Z,7.29
2018-01-03T23:54:26.581Z,7.3
2018-01-03T23:55:26.482Z,7.32
2018-01-03T23:56:27.213Z,7.32
2018-01-03T23:57:26.821Z,7.33
2018-01-03T23:58:26.258Z,7.32
2018-01-03T23:59:11.799Z,7.35
